sensor_id;sensor_type;location;lat;lon;timestamp;pressure;altitude;pressure_sealevel;temperature;humidity
53671;BME280;39571;48.612;8.088;2023-09-19T09:18:42;99869.72;;;36.40;37.93
53671;BME280;39571;48.612;8.088;2023-09-19T09:23:49;99864.00;;;34.47;37.27
53671;BME280;39571;48.612;8.088;2023-09-19T09:29:02;99868.69;;;34.94;36.71
53671;BME280;39571;48.612;8.088;2023-09-19T09:31:27;99866.41;;;35.69;35.90
53671;BME280;39571;48.612;8.088;2023-09-19T09:33:54;99859.59;;;36.26;35.08
53671;BME280;39571;48.612;8.088;2023-09-19T09:36:33;99859.69;;;35.48;34.55
53671;BME280;39571;48.612;8.088;2023-09-19T09:38:59;99861.63;;;35.40;36.42
53671;BME280;39571;48.612;8.088;2023-09-19T09:41:37;99867.00;;;34.93;35.90
53671;BME280;39571;48.612;8.088;2023-09-19T09:44:15;99865.28;;;36.39;33.35
53671;BME280;39571;48.612;8.088;2023-09-19T09:46:43;99857.13;;;36.77;34.20
53671;BME280;39571;48.612;8.088;2023-09-19T09:49:22;99857.13;;;35.86;35.01
53671;BME280;39571;48.612;8.088;2023-09-19T09:52:02;99855.69;;;35.75;32.17
53671;BME280;39571;48.612;8.088;2023-09-19T09:54:33;99859.78;;;33.29;36.04
53671;BME280;39571;48.612;8.088;2023-09-19T09:57:06;99841.22;;;34.24;37.36
53671;BME280;39571;48.612;8.088;2023-09-19T09:59:55;99839.88;;;34.36;36.28
53671;BME280;39571;48.612;8.088;2023-09-19T10:02:34;99849.03;;;34.27;35.83
53671;BME280;39571;48.612;8.088;2023-09-19T10:05:16;99845.59;;;32.58;37.27
53671;BME280;39571;48.612;8.088;2023-09-19T10:07:54;99845.59;;;32.58;38.49
53671;BME280;39571;48.612;8.088;2023-09-19T10:10:40;99845.59;;;32.75;38.19
53671;BME280;39571;48.612;8.088;2023-09-19T10:13:10;99844.34;;;33.29;37.99
53671;BME280;39571;48.612;8.088;2023-09-19T10:15:48;99848.25;;;31.96;39.69
53671;BME280;39571;48.612;8.088;2023-09-19T10:18:23;99849.84;;;30.71;40.23
53671;BME280;39571;48.612;8.088;2023-09-19T10:20:49;99842.72;;;29.54;42.16
53671;BME280;39571;48.612;8.088;2023-09-19T10:23:17;99855.28;;;27.90;45.74
53671;BME280;39571;48.612;8.088;2023-09-19T10:25:48;99852.63;;;26.91;48.28
53671;BME280;39571;48.612;8.088;2023-09-19T10:28:15;99845.59;;;26.67;51.41
53671;BME280;39571;48.612;8.088;2023-09-19T10:30:42;99842.47;;;26.27;53.49
53671;BME280;39571;48.612;8.088;2023-09-19T10:33:19;99831.97;;;26.00;54.98
53671;BME280;39571;48.612;8.088;2023-09-19T10:35:48;99829.78;;;26.05;56.54
53671;BME280;39571;48.612;8.088;2023-09-19T10:38:17;99829.94;;;26.14;59.69
53671;BME280;39571;48.612;8.088;2023-09-19T10:40:44;99828.78;;;25.95;60.92
53671;BME280;39571;48.612;8.088;2023-09-19T10:43:19;99836.16;;;25.80;58.43
53671;BME280;39571;48.612;8.088;2023-09-19T10:45:45;99841.91;;;25.14;58.52
53671;BME280;39571;48.612;8.088;2023-09-19T10:48:15;99836.69;;;25.00;73.19
53671;BME280;39571;48.612;8.088;2023-09-19T10:53:40;99853.09;;;24.57;87.65
53671;BME280;39571;48.612;8.088;2023-09-19T10:56:08;99857.44;;;24.33;78.36
53671;BME280;39571;48.612;8.088;2023-09-19T10:58:42;99842.88;;;23.98;81.34
53671;BME280;39571;48.612;8.088;2023-09-19T11:01:10;99847.19;;;23.74;81.69
53671;BME280;39571;48.612;8.088;2023-09-19T11:03:43;99848.50;;;23.54;89.82
53671;BME280;39571;48.612;8.088;2023-09-19T11:06:18;99843.81;;;23.57;96.59
53671;BME280;39571;48.612;8.088;2023-09-19T11:09:00;99840.28;;;23.84;100.00
53671;BME280;39571;48.612;8.088;2023-09-19T11:11:47;99827.47;;;23.89;92.93
